KFTW

Fort Worth Meacham International Airport

Fort Worth, Texas, USA
KFTW 161720Z 1618/1718 18009KT P6SM FEW070 FM171400 23008KT P6SM SKC
Issued Valid From Valid To
Jul-16 @ 17:20 UTC
(3 hours ago)
Jul-16 @ 18:00 UTC
(2 hours ago)
Jul-17 @ 18:00 UTC
(in 22 hours)
Jul-16 @ 18:00 to Jul-17 @ 14:00
KFTW 161720Z 1618/1718 18009KT P6SM FEW070
Wind Visibility Clouds
180° at 9 knots Greater than 6 miles
  • Few at 7,000' AGL
From Jul-17 @ 14:00 to Jul-17 @ 18:00
FM171400 23008KT P6SM SKC
Wind Visibility Clouds
230° at 8 knots Greater than 6 miles
  • Clear skies
KFTW 161720Z 1618/1718 18009KT P6SM FEW070 FM171400 23008KT P6SM SKC
Issued Jul-16 @ 17:20 UTC
(3 hours ago)
Valid From Jul-16 @ 18:00 UTC
(2 hours ago)
Valid To Jul-17 @ 18:00 UTC
(in 22 hours)
Jul-16 @ 18:00 - Jul-17 @ 14:00
Wind Visibility
180° at 9 knots Greater than 6 miles
Clouds
  • Few at 7,000' AGL
From Jul-17 @ 14:00 - Jul-17 @ 18:00
Wind Visibility
230° at 8 knots Greater than 6 miles
Clouds
  • Clear skies